< Typhoon 195922 1959 Season Typhoon 196001 >
Typhoon 195923 (HARRIET)
General InformationTrack Information on Google Maps || Disaster Info.ResourceGoogle EarthGE AnimationAtom FeedGeoJSON
Detalied Best Track (Time Zone = UTC)
Year Month Day Hour Lat. Long. Pressure (hPa) Wind (kt) Class Image Chart
1959 12 23 06 3.2 153.5 995 0 2 -- Chart
1959 12 23 12 3.2 153.5 995 0 2 -- Chart
1959 12 23 18 3.2 153.5 995 0 2 -- Chart
1959 12 24 00 3.0 153.6 995 0 9 -- Chart
1959 12 24 06 3.4 153.3 995 0 9 -- Chart
1959 12 24 12 3.9 152.9 990 0 9 -- Chart
1959 12 24 18 4.2 152.3 990 0 9 -- Chart
1959 12 25 00 4.8 151.6 985 0 9 -- Chart
1959 12 25 06 5.3 150.8 980 0 9 -- Chart
1959 12 25 12 5.9 149.9 980 0 9 -- Chart
1959 12 25 18 6.3 148.9 980 0 9 -- Chart
1959 12 26 00 7.3 148.1 975 0 9 -- Chart
1959 12 26 06 8.2 147.3 975 0 9 -- Chart
1959 12 26 12 9.3 146.0 975 0 9 -- Chart
1959 12 26 18 10.2 144.5 975 0 9 -- Chart
1959 12 27 00 10.4 142.9 980 0 9 -- Chart
1959 12 27 06 11.1 141.3 980 0 9 -- Chart
1959 12 27 12 11.9 139.7 980 0 9 -- Chart
1959 12 27 18 12.4 138.0 975 0 9 -- Chart
1959 12 28 00 13.0 136.5 950 0 9 -- Chart
1959 12 28 06 13.2 134.9 930 0 9 -- Chart
1959 12 28 12 13.8 133.6 930 0 9 -- Chart
1959 12 28 18 14.2 132.5 930 0 9 -- Chart
1959 12 29 00 14.5 130.8 950 0 9 -- Chart
1959 12 29 06 14.4 129.8 945 0 9 -- Chart
1959 12 29 12 14.4 129.0 940 0 9 -- Chart
1959 12 29 18 14.4 128.2 940 0 9 -- Chart
1959 12 30 00 14.3 127.7 945 0 9 -- Chart
1959 12 30 06 14.2 126.8 950 0 9 -- Chart
1959 12 30 12 13.7 125.9 950 0 9 -- Chart
1959 12 30 18 13.7 125.0 950 0 9 -- Chart
1959 12 31 00 13.8 124.9 955 0 9 -- Chart
1959 12 31 06 13.8 123.3 955 0 9 -- Chart
1959 12 31 12 13.7 122.6 955 0 9 -- Chart
1959 12 31 18 13.5 121.8 970 0 9 -- Chart
1960 1 1 00 13.0 121.0 995 0 9 -- Chart
1960 1 1 06 12.2 120.0 995 0 9 -- Chart
1960 1 1 12 11.6 119.2 995 0 9 -- Chart
1960 1 1 18 11.1 118.3 996 0 9 -- Chart
1960 1 2 00 10.3 117.3 1000 0 9 -- Chart
1960 1 2 06 9.8 116.4 1004 0 9 -- Chart
1960 1 2 12 8.5 116.0 1008 0 2 -- Chart
1960 1 2 18 8.0 115.0 1008 0 2 -- Chart
1960 1 3 00 8.0 114.0 1008 0 2 -- Chart
1960 1 3 06 8.0 113.0 1006 0 2 -- Chart
1960 1 3 12 8.0 112.0 1006 0 2 -- Chart
1960 1 3 18 8.0 111.0 1006 0 2 -- Chart
Japan Meteorological Agency Best Track Data | Correction Date : 1989-06-01
< Typhoon 195922 1959 Season Typhoon 196001 >

Help